createdAt,value
2019-03-01T00:05:47.662Z,9.57
2019-03-01T00:13:01.820Z,9.55
2019-03-01T00:20:25.789Z,9.50
2019-03-01T00:27:51.772Z,9.48
2019-03-01T00:34:52.566Z,9.46
2019-03-01T00:42:05.110Z,9.43
2019-03-01T00:48:20.709Z,9.39
2019-03-01T00:54:46.563Z,9.39
2019-03-01T01:01:25.517Z,9.38
2019-03-01T01:07:55.578Z,9.38
2019-03-01T01:14:22.402Z,9.36
2019-03-01T01:21:01.355Z,9.32
2019-03-01T01:27:28.991Z,9.31
2019-03-01T01:33:58.522Z,9.30
2019-03-01T01:40:26.830Z,9.31
2019-03-01T01:46:58.413Z,9.31
2019-03-01T01:53:26.620Z,9.30
2019-03-01T01:59:54.220Z,9.30
2019-03-01T02:06:40.474Z,9.26
2019-03-01T02:13:08.311Z,9.20
2019-03-01T02:19:35.934Z,9.20
2019-03-01T02:26:14.888Z,9.15
2019-03-01T02:32:50.075Z,9.14
2019-03-01T02:39:20.884Z,9.12
2019-03-01T02:45:11.136Z,9.12
2019-03-01T02:51:37.803Z,9.11
2019-03-01T02:58:16.761Z,9.06
2019-03-01T03:04:42.951Z,9.05
2019-03-01T03:11:08.776Z,9.03
2019-03-01T03:17:46.608Z,8.96
2019-03-01T03:24:13.546Z,8.94
2019-03-01T03:30:41.166Z,8.89
2019-03-01T03:37:11.928Z,8.89
2019-03-01T03:43:53.224Z,8.91
2019-03-01T03:50:10.981Z,8.94
2019-03-01T03:56:38.496Z,8.93
2019-03-01T04:03:15.733Z,8.89
2019-03-01T04:09:44.583Z,8.89
2019-03-01T04:16:09.158Z,8.92
2019-03-01T04:22:48.111Z,8.90
2019-03-01T04:29:13.955Z,8.89
2019-03-01T04:35:40.995Z,8.92
2019-03-01T04:42:06.811Z,8.92
2019-03-01T04:51:41.502Z,8.92
2019-03-01T04:58:22.155Z,8.91
2019-03-01T05:04:51.322Z,8.89
2019-03-01T05:11:15.904Z,8.86
2019-03-01T05:17:41.758Z,8.83
2019-03-01T05:24:18.661Z,8.78
2019-03-01T05:30:42.473Z,8.80
2019-03-01T05:37:09.134Z,8.80
2019-03-01T05:43:48.463Z,8.77
2019-03-01T05:53:55.953Z,8.71
2019-03-01T06:00:23.312Z,8.67
2019-03-01T06:08:17.005Z,8.66
2019-03-01T06:15:43.010Z,8.63
2019-03-01T06:23:05.380Z,8.63
2019-03-01T06:30:30.691Z,8.57
2019-03-01T06:37:43.492Z,8.58
2019-03-01T06:44:57.799Z,8.56
2019-03-01T06:55:14.900Z,8.56
2019-03-01T07:05:26.578Z,8.55
2019-03-01T07:11:52.784Z,8.52
2019-03-01T07:18:29.714Z,8.53
2019-03-01T07:24:55.534Z,8.54
2019-03-01T07:31:23.373Z,8.58
2019-03-01T07:38:00.300Z,8.59
2019-03-01T07:44:27.894Z,8.62
2019-03-01T07:51:14.163Z,8.66
2019-03-01T07:57:36.800Z,8.67
2019-03-01T08:04:14.658Z,8.69
2019-03-01T08:10:49.806Z,8.72
2019-03-01T08:17:15.234Z,8.73
2019-03-01T08:23:41.446Z,8.73
2019-03-01T08:30:10.273Z,8.75
2019-03-01T08:36:38.674Z,8.80
2019-03-01T08:43:12.013Z,8.82
2019-03-01T08:49:35.833Z,8.83
2019-03-01T08:55:52.123Z,8.85
2019-03-01T09:02:19.055Z,8.93
2019-03-01T09:08:58.838Z,9.03
2019-03-01T09:15:26.182Z,9.08
2019-03-01T09:21:51.756Z,9.14
2019-03-01T09:28:22.524Z,9.19
2019-03-01T09:34:24.203Z,9.28
2019-03-01T09:40:50.056Z,9.37
2019-03-01T09:47:18.769Z,9.43
2019-03-01T09:57:41.281Z,9.60
2019-03-01T10:04:17.873Z,9.61
2019-03-01T10:10:44.038Z,9.68
2019-03-01T10:17:07.833Z,9.70
2019-03-01T10:23:33.660Z,9.75
2019-03-01T10:30:20.524Z,9.83
2019-03-01T10:36:49.534Z,9.93
2019-03-01T10:43:17.138Z,9.95
2019-03-01T10:49:58.141Z,10.11
2019-03-01T10:59:47.987Z,9.96
2019-03-01T11:06:11.779Z,9.87
2019-03-01T11:12:45.819Z,9.80
2019-03-01T11:19:17.761Z,9.76
2019-03-01T11:25:56.359Z,9.78
2019-03-01T11:32:22.539Z,9.64
2019-03-01T11:38:48.357Z,9.64
2019-03-01T11:45:29.885Z,9.68
2019-03-01T11:51:56.966Z,9.64
2019-03-01T12:01:58.112Z,9.59
2019-03-01T12:08:25.764Z,9.75
2019-03-01T12:14:32.352Z,9.77
2019-03-01T12:21:15.413Z,9.81
2019-03-01T12:27:44.433Z,9.94
2019-03-01T12:34:10.250Z,9.99
2019-03-01T12:40:47.175Z,9.95
2019-03-01T12:47:16.828Z,9.91
2019-03-01T12:53:40.629Z,9.71
2019-03-01T13:03:09.233Z,9.35
2019-03-01T13:09:37.067Z,9.10
2019-03-01T13:15:37.874Z,9.00
2019-03-01T13:22:08.743Z,9.03
2019-03-01T13:28:33.317Z,9.08
2019-03-01T13:34:59.169Z,9.15
2019-03-01T13:41:38.127Z,9.17
2019-03-01T13:48:03.297Z,9.35
2019-03-01T13:54:28.591Z,9.25
2019-03-01T14:04:45.058Z,9.26
2019-03-01T14:11:23.536Z,9.27
2019-03-01T14:17:16.267Z,9.30
2019-03-01T14:23:42.126Z,9.34
2019-03-01T14:30:08.786Z,9.35
2019-03-01T14:36:49.789Z,9.29
2019-03-01T14:43:20.298Z,9.28
2019-03-01T14:49:45.589Z,9.32
2019-03-01T14:56:39.707Z,9.34
2019-03-01T15:06:29.540Z,9.25
2019-03-01T15:13:09.314Z,9.26
2019-03-01T15:19:37.534Z,9.20
2019-03-01T15:26:05.371Z,9.25
2019-03-01T15:32:44.324Z,9.19
2019-03-01T15:39:12.166Z,9.15
2019-03-01T15:45:43.033Z,9.21
2019-03-01T15:52:13.865Z,9.23
2019-03-01T15:58:55.382Z,9.20
2019-03-01T16:09:11.780Z,9.21
2019-03-01T16:15:38.920Z,9.12
2019-03-01T16:22:10.696Z,9.07
2019-03-01T16:28:47.623Z,9.10
2019-03-01T16:35:16.613Z,9.10
2019-03-01T16:41:42.783Z,9.09
2019-03-01T16:48:10.134Z,9.16
2019-03-01T16:54:54.761Z,9.08
2019-03-01T17:01:26.028Z,9.10
2019-03-01T17:11:44.601Z,9.04
2019-03-01T17:17:38.495Z,8.98
2019-03-01T17:24:18.269Z,9.01
2019-03-01T17:30:46.698Z,9.04
2019-03-01T17:37:14.064Z,9.00
2019-03-01T17:43:44.008Z,8.98
2019-03-01T17:50:31.177Z,8.94
2019-03-01T17:57:01.516Z,8.93
2019-03-01T18:03:26.848Z,8.94
2019-03-01T18:10:05.519Z,8.93
2019-03-01T18:15:54.897Z,8.86
2019-03-01T18:22:26.601Z,8.88
2019-03-01T18:29:00.908Z,8.86
2019-03-01T18:35:23.832Z,8.85
2019-03-01T18:41:51.679Z,8.78
2019-03-01T18:48:17.264Z,8.76
2019-03-01T18:54:43.135Z,8.67
2019-03-01T19:01:16.204Z,8.72
2019-03-01T19:07:47.074Z,8.70
2019-03-01T19:17:50.855Z,8.64
2019-03-01T19:24:33.038Z,8.52
2019-03-01T19:31:11.638Z,8.47
2019-03-01T19:37:50.935Z,8.45
2019-03-01T19:44:25.671Z,8.34
2019-03-01T19:50:58.427Z,8.25
2019-03-01T19:57:26.167Z,8.18
2019-03-01T20:00:28.035Z,8.15
2019-03-01T20:07:07.329Z,8.15
2019-03-01T20:13:36.177Z,8.04
2019-03-01T20:20:04.023Z,7.97
2019-03-01T20:26:28.641Z,7.93
2019-03-01T20:32:58.586Z,7.95
2019-03-01T20:38:48.791Z,7.93
2019-03-01T20:45:25.834Z,7.93
2019-03-01T20:51:49.514Z,7.88
2019-03-01T20:58:19.748Z,7.90
2019-03-01T21:08:33.452Z,7.86
2019-03-01T21:15:03.063Z,7.79
2019-03-01T21:21:28.912Z,7.83
2019-03-01T21:28:10.253Z,7.79
2019-03-01T21:34:47.162Z,7.66
2019-03-01T21:41:33.431Z,7.51
2019-03-01T21:48:12.375Z,7.39
2019-03-01T21:54:40.212Z,7.22
2019-03-01T22:01:06.022Z,6.99
2019-03-01T22:07:01.831Z,6.91
2019-03-01T22:13:27.397Z,6.96
2019-03-01T22:19:57.943Z,6.86
2019-03-01T22:26:24.066Z,6.85
2019-03-01T22:33:00.708Z,6.86
2019-03-01T22:38:55.502Z,6.87
2019-03-01T22:45:28.237Z,6.88
2019-03-01T22:51:55.234Z,6.86
2019-03-01T22:58:24.084Z,6.95
2019-03-01T23:04:51.520Z,6.98
2019-03-01T23:14:53.641Z,7.02
2019-03-01T23:21:19.497Z,7.04
2019-03-01T23:27:43.296Z,7.06
2019-03-01T23:34:10.322Z,7.06
2019-03-01T23:40:00.997Z,7.06
2019-03-01T23:46:31.677Z,7.06
2019-03-01T23:52:58.772Z,7.01
2019-03-01T23:59:35.426Z,7.04
